Port Acres, Texas
Current Conditions -  °F | °C
As of 5:58 PM on Saturday 22 Nov 2014 (Local Time) from KBPT Reporting Station
Overcast Overcast  
Wind Chill: 65°   Ceiling: 1300
Heat Index: 65°   Visibility: 7mi
Dew Point: 63°   Wind: 16mph
Humidity: 93%   Direction: 110°ESE
Pressure: 29.86"   Gusts: NA
Location:  29.7569°N, 94.1898°W
Report Text: KBPT 222358Z 11014KT 7SM SCT008 BKN013 OVC032 18/17 A2986 RMK AO2 T01830172
Loading
Personal Weather Stations






























Interactive Weather Map New forecast layout! Learn more

10-Day Weather Forecast

Advertisements
Track Severe Weather on mobile